createdAt,value
2023-01-18T01:30:12.330Z,98102.27
2023-01-18T01:32:47.448Z,98101.86
2023-01-18T01:36:05.738Z,98100.42
2023-01-18T01:43:18.240Z,98089.16
2023-01-18T01:45:52.515Z,98098.00
2023-01-18T01:48:39.763Z,98107.80
2023-01-18T01:51:36.617Z,98109.30
2023-01-18T01:54:23.963Z,98114.13
2023-01-18T01:56:56.985Z,98123.80
2023-01-18T02:02:16.638Z,98121.31
2023-01-18T02:04:57.761Z,98114.52
2023-01-18T02:07:34.428Z,98115.87
2023-01-18T02:10:07.446Z,98109.39
2023-01-18T02:12:50.301Z,98108.66
2023-01-18T02:15:47.148Z,98105.70
2023-01-18T02:18:44.314Z,98104.75
2023-01-18T02:21:18.439Z,98104.80
2023-01-18T02:24:19.274Z,98109.54
2023-01-18T02:27:10.778Z,98111.11
2023-01-18T02:30:01.565Z,98107.95
2023-01-18T02:33:10.740Z,98103.89
2023-01-18T02:36:12.544Z,98104.68
2023-01-18T02:39:06.578Z,98105.55
2023-01-18T02:42:14.913Z,98102.94
2023-01-18T02:45:12.149Z,98106.91
2023-01-18T02:48:25.505Z,98106.56
2023-01-18T02:51:26.165Z,98100.48
2023-01-18T02:54:40.926Z,98092.48
2023-01-18T02:57:55.883Z,98084.02
2023-01-18T03:00:45.811Z,98083.34
2023-01-18T03:03:25.007Z,98079.86
2023-01-18T03:06:09.585Z,98077.80
2023-01-18T03:09:14.310Z,98073.38
2023-01-18T03:12:21.416Z,98064.21
2023-01-18T03:15:13.978Z,98061.32
2023-01-18T03:17:57.029Z,98054.23
2023-01-18T03:20:47.975Z,98049.27
2023-01-18T03:23:41.427Z,98042.41
2023-01-18T03:26:14.931Z,98041.52
2023-01-18T03:29:13.474Z,98041.19
2023-01-18T03:32:10.583Z,98030.24
2023-01-18T03:34:51.238Z,98017.11
2023-01-18T03:37:44.754Z,98012.92
2023-01-18T03:40:27.995Z,98009.67
2023-01-18T03:43:14.844Z,98004.76
2023-01-18T03:45:53.295Z,97999.27
2023-01-18T03:48:27.120Z,97996.36
2023-01-18T03:51:15.040Z,97989.26
2023-01-18T03:53:56.533Z,97979.08
2023-01-18T03:56:41.095Z,97974.45
2023-01-18T03:59:09.010Z,97968.94
2023-01-18T04:01:36.812Z,97963.75
2023-01-18T04:04:04.242Z,97957.73
2023-01-18T04:06:33.115Z,97946.46
2023-01-18T04:09:18.870Z,97935.88
2023-01-18T04:11:48.434Z,97930.12
2023-01-18T04:23:27.902Z,97923.65
2023-01-18T04:25:58.563Z,97925.30
2023-01-18T04:28:36.934Z,97927.27
2023-01-18T04:31:28.818Z,97935.85
2023-01-18T04:34:04.168Z,97936.17
2023-01-18T04:36:39.524Z,97934.45
2023-01-18T04:39:32.459Z,97937.42
2023-01-18T04:42:11.438Z,97948.33
2023-01-18T04:45:39.234Z,97940.01
2023-01-18T04:48:41.369Z,97940.91
2023-01-18T04:51:16.496Z,97937.30
2023-01-18T04:59:56.091Z,97938.61
2023-01-18T05:02:28.617Z,97942.11
2023-01-18T05:05:00.710Z,97936.61
2023-01-18T05:07:32.054Z,97937.16
2023-01-18T05:10:05.825Z,97939.63
2023-01-18T05:12:36.611Z,97939.83
2023-01-18T05:15:09.540Z,97939.28
2023-01-18T05:17:40.424Z,97931.79
2023-01-18T05:20:13.922Z,97930.05
2023-01-18T05:22:44.922Z,97929.22
2023-01-18T05:25:16.793Z,97930.48
2023-01-18T05:27:50.281Z,97928.99
2023-01-18T05:30:22.370Z,97927.66
2023-01-18T05:33:48.381Z,97929.38
2023-01-18T05:41:49.217Z,97903.32
2023-01-18T05:45:13.137Z,97894.79
2023-01-18T06:00:55.635Z,97838.42
2023-01-18T06:07:59.524Z,97821.83
2023-01-18T06:11:08.857Z,97820.17
2023-01-18T06:13:55.784Z,97819.69
2023-01-18T06:16:38.445Z,97817.21
2023-01-18T06:19:20.475Z,97816.13
2023-01-18T06:22:14.831Z,97819.02
2023-01-18T06:50:37.427Z,97778.75
2023-01-18T06:50:39.010Z,97787.81
2023-01-18T06:51:32.811Z,97819.20
2023-01-18T06:53:09.013Z,97796.19
2023-01-18T07:08:56.064Z,97775.22
2023-01-18T07:36:31.189Z,97779.52
2023-01-18T07:51:39.940Z,97770.36
2023-01-18T07:54:09.153Z,97781.27
2023-01-18T07:56:39.545Z,97781.92
2023-01-18T07:59:09.450Z,97777.95
2023-01-18T08:01:45.363Z,97775.73
2023-01-18T08:04:15.862Z,97779.75
2023-01-18T08:07:20.122Z,97776.05
2023-01-18T08:10:47.732Z,97772.13
2023-01-18T08:13:21.745Z,97765.60
2023-01-18T08:15:54.289Z,97764.14
2023-01-18T08:18:31.596Z,97768.57
2023-01-18T08:21:05.250Z,97766.20
2023-01-18T08:41:22.616Z,97721.02
2023-01-18T09:22:28.842Z,97741.39
2023-01-18T09:25:22.863Z,97739.93
2023-01-18T09:27:51.944Z,97719.66
2023-01-18T09:30:20.660Z,97711.49
2023-01-18T09:32:49.099Z,97705.91
2023-01-18T09:35:18.492Z,97698.45
2023-01-18T09:37:52.851Z,97694.11
2023-01-18T09:40:56.035Z,97691.71
2023-01-18T09:43:34.564Z,97688.23
2023-01-18T09:46:36.955Z,97677.73
2023-01-18T09:49:18.235Z,97670.19
2023-01-18T09:51:57.241Z,97672.75
2023-01-18T09:55:30.840Z,97680.40
2023-01-18T09:58:18.573Z,97673.65
2023-01-18T10:00:51.992Z,97671.73
2023-01-18T10:03:42.653Z,97683.48
2023-01-18T10:06:47.218Z,97680.58
2023-01-18T10:10:03.544Z,97678.98
2023-01-18T10:12:58.537Z,97671.31
2023-01-18T10:22:08.737Z,97686.19
2023-01-18T10:25:17.128Z,97690.10
2023-01-18T10:28:25.799Z,97687.70
2023-01-18T10:31:30.492Z,97683.63
2023-01-18T10:34:03.133Z,97668.95
2023-01-18T10:36:42.064Z,97657.95
2023-01-18T10:39:35.078Z,97650.33
2023-01-18T10:42:07.345Z,97647.71
2023-01-18T10:44:36.070Z,97654.83
2023-01-18T10:47:04.565Z,97663.04
2023-01-18T10:49:35.103Z,97662.41
2023-01-18T10:52:27.396Z,97659.51
2023-01-18T10:55:02.584Z,97651.51
2023-01-18T10:57:52.277Z,97648.58
2023-01-18T11:00:31.017Z,97637.30
2023-01-18T11:03:02.716Z,97630.27
2023-01-18T11:05:39.442Z,97629.14
2023-01-18T11:08:18.959Z,97621.94
2023-01-18T11:11:02.822Z,97622.30
2023-01-18T11:13:40.616Z,97616.58
2023-01-18T11:16:17.953Z,97618.08
2023-01-18T11:18:57.173Z,97618.58
2023-01-18T11:21:31.939Z,97621.77
2023-01-18T11:24:07.991Z,97624.05
2023-01-18T11:26:52.657Z,97626.02
2023-01-18T11:29:28.397Z,97631.83
2023-01-18T11:32:02.495Z,97636.73
2023-01-18T11:34:44.139Z,97635.67
2023-01-18T11:37:41.631Z,97635.56
2023-01-18T11:40:19.314Z,97635.93
2023-01-18T11:42:50.891Z,97635.34
2023-01-18T11:45:24.887Z,97634.75
2023-01-18T11:48:15.532Z,97637.61
2023-01-18T11:50:47.178Z,97639.39
2023-01-18T11:53:33.978Z,97643.42
2023-01-18T11:56:07.046Z,97639.91
2023-01-18T11:58:36.359Z,97635.21
2023-01-18T12:01:10.994Z,97632.97
2023-01-18T12:03:56.590Z,97626.77
2023-01-18T12:06:36.783Z,97622.02
2023-01-18T12:09:15.073Z,97629.53
2023-01-18T12:11:52.951Z,97633.55
2023-01-18T12:14:44.489Z,97630.24
2023-01-18T12:17:34.625Z,97634.11
2023-01-18T12:20:12.406Z,97631.71
2023-01-18T12:23:01.026Z,97632.78
2023-01-18T12:26:03.117Z,97633.41
2023-01-18T12:28:47.516Z,97637.29
2023-01-18T12:31:50.467Z,97639.48
2023-01-18T12:34:26.013Z,97643.90
2023-01-18T12:37:03.422Z,97644.77
2023-01-18T12:39:50.440Z,97635.94
2023-01-18T12:42:26.194Z,97638.02
2023-01-18T12:45:13.164Z,97647.41
2023-01-18T12:47:48.565Z,97655.13
2023-01-18T12:50:31.428Z,97664.79
2023-01-18T12:53:06.550Z,97675.73
2023-01-18T12:55:40.319Z,97673.77
2023-01-18T12:58:22.765Z,97677.30
2023-01-18T13:00:59.726Z,97677.30
2023-01-18T13:03:41.624Z,97673.89
2023-01-18T13:06:11.717Z,97676.41
2023-01-18T13:08:44.700Z,97677.30
2023-01-18T13:11:20.018Z,97680.70
2023-01-18T13:14:24.216Z,97683.71
2023-01-18T13:17:11.145Z,97692.23
2023-01-18T13:19:44.768Z,97690.02
2023-01-18T13:22:45.934Z,97696.83
2023-01-18T13:25:20.732Z,97700.82
2023-01-18T13:28:05.950Z,97700.52
2023-01-18T13:30:49.858Z,97703.85
2023-01-18T13:33:24.324Z,97706.23
2023-01-18T13:36:12.022Z,97709.48
2023-01-18T13:38:49.366Z,97712.59
2023-01-18T13:41:25.166Z,97722.92
2023-01-18T13:44:01.728Z,97724.04
2023-01-18T13:46:35.571Z,97725.42
2023-01-18T13:49:38.597Z,97727.34
2023-01-18T13:52:34.223Z,97728.70
2023-01-18T13:55:23.309Z,97730.00
2023-01-18T13:57:57.134Z,97737.89
2023-01-18T14:00:27.858Z,97743.30
2023-01-18T14:03:18.344Z,97748.15
2023-01-18T14:05:49.193Z,97751.05
2023-01-18T14:08:29.419Z,97756.04
2023-01-18T14:11:25.174Z,97756.31
2023-01-18T14:18:29.081Z,97765.90
2023-01-18T14:21:28.534Z,97770.52
2023-01-18T14:24:09.480Z,97773.97
2023-01-18T14:26:41.574Z,97774.90
2023-01-18T14:29:19.022Z,97778.36
2023-01-18T14:31:53.403Z,97773.11
2023-01-18T14:34:31.143Z,97770.77
2023-01-18T14:37:00.141Z,97779.13
2023-01-18T14:39:30.437Z,97785.08
2023-01-18T14:42:05.390Z,97795.56
2023-01-18T14:44:56.936Z,97807.88
2023-01-18T14:47:32.790Z,97815.87
2023-01-18T14:50:05.343Z,97817.39
2023-01-18T15:27:27.126Z,97890.98
2023-01-18T15:30:00.279Z,97909.29
2023-01-18T15:32:39.963Z,97904.38
2023-01-18T15:38:09.240Z,97912.05
2023-01-18T15:40:59.468Z,97923.77
2023-01-18T15:43:42.129Z,97933.91
2023-01-18T15:49:55.327Z,97954.83
2023-01-18T15:53:07.425Z,97965.61
2023-01-18T15:55:48.707Z,97972.54
2023-01-18T15:59:15.557Z,97978.56
2023-01-18T16:05:32.977Z,98004.96
2023-01-18T16:08:25.564Z,98013.13
2023-01-18T16:11:32.736Z,98016.34
2023-01-18T16:14:26.754Z,98018.31
2023-01-18T16:17:03.246Z,98026.61
2023-01-18T16:19:46.362Z,98036.20
2023-01-18T16:22:37.669Z,98046.29
2023-01-18T16:25:25.411Z,98059.70
2023-01-18T16:28:03.505Z,98074.25
2023-01-18T16:30:38.044Z,98080.24
2023-01-18T17:36:26.398Z,98217.13
2023-01-18T17:40:44.071Z,98221.88
2023-01-18T17:44:37.635Z,98235.42
2023-01-18T18:39:16.137Z,98361.98
2023-01-18T18:59:35.335Z,98409.34
2023-01-18T19:03:10.095Z,98428.45
2023-01-18T19:05:56.003Z,98445.59
2023-01-18T19:08:31.371Z,98457.00
2023-01-18T19:11:22.347Z,98464.52
2023-01-18T20:35:51.366Z,98635.66
2023-01-18T20:39:06.067Z,98635.33
2023-01-18T22:00:09.232Z,98809.71
2023-01-18T22:00:55.698Z,98845.05
2023-01-18T22:04:24.237Z,98857.41
2023-01-18T22:19:19.856Z,98855.98
2023-01-18T22:22:17.465Z,98867.36
2023-01-18T22:24:46.058Z,98879.69
2023-01-18T22:27:14.643Z,98878.86
2023-01-18T22:29:43.105Z,98878.51
2023-01-18T22:53:29.433Z,98902.30
2023-01-18T23:00:48.862Z,98905.46
2023-01-18T23:03:39.113Z,98911.07
2023-01-18T23:04:00.690Z,98906.67
2023-01-18T23:06:25.748Z,98911.17
2023-01-18T23:09:14.352Z,98917.70
2023-01-18T23:12:01.559Z,98921.77
2023-01-18T23:15:38.471Z,98929.52
2023-01-18T23:22:31.931Z,98940.80
2023-01-18T23:25:32.404Z,98948.90
2023-01-18T23:32:55.292Z,98967.54
2023-01-18T23:46:02.256Z,98990.38
2023-01-18T23:49:17.295Z,99008.36
2023-01-18T23:52:30.636Z,99019.60
2023-01-18T23:55:57.931Z,99033.05
2023-01-18T23:58:57.849Z,99047.50
